TFM - Tactical Decision Aid (Experimental) INFO Settings
ID: Runway Winds: CIG/VIS Threshold: METAR Board: Map:

Kclt - Charlotte-Douglas Intl

Updated at: 1604 UTC 28 May 2015
Latest TAF at: 1504 UTC 28 May 2015

TAF Board

Time1552Z28/17Z28/18Z28/19Z28/20Z28/21Z28/22Z28/23Z29/00Z29/01Z29/02Z29/03Z29/04Z29/05Z
TypeOBSPRVLPRVLPRVLPRVL
  [TEMP]  
PRVL
  [TEMP]  
PRVL
  [TEMP]  
PRVL
  [TEMP]  
PRVLPRVLPRVLPRVLPRVLPRVL
VIS10>6>6>6>6
  [4]  
>6
  [4]  
>6
  [4]  
>6
  [4]  
>6>6>6>6>6>6
CIG25045454545
  [30]  
45
  [30]  
45
  [30]  
45
  [30]  
45454545250250
CoverBKNBKNBKNBKNBKN
  [BKN]  
BKN
  [BKN]  
BKN
  [BKN]  
BKN
  [BKN]  
BKNBKNBKNBKNBKNBKN
FltCatVFRVFRVFRVFRVFR
  [MVFR]  
VFR
  [MVFR]  
VFR
  [MVFR]  
VFR
  [MVFR]  
VFRVFRVFRVFRVFRVFR
WX----------
  [TSRA]  
--
  [TSRA]  
--
  [TSRA]  
--
  [TSRA]  
------------
WDir210180180180180
[180]
180
[180]
180
[180]
180
[180]
180180180180160160
WSpd54444
  [4]  
4
  [4]  
4
  [4]  
4
  [4]  
444444
WGst----------
  [--]  
--
  [--]  
--
  [--]  
--
  [--]  
------------
TAF
KCLT 281504Z 2815/2912 16003KT P6SM SCT021 SCT035 BKN250
  FM281700 18004KT P6SM BKN045
  TEMPO 2820/2824 4SM TSRA BKN030CB
  FM290400 16004KT P6SM FEW060 BKN250


METAR
KCLT 281552Z 21005KT 10SM FEW030 BKN250 29/16 A3023 RMK AO2 SLP227 T02890161
KCLT 281452Z 00000KT 10SM BKN250 27/18 A3024 RMK AO2 SLP230 T02720183 51004

TAF/METAR Board Legend

Potential Impact
  None Marginal Slight Moderate High
Visibility (sm) > ≤X≤ <
Ceiling (100 ft) > ≤X≤ <
Wind Speed (kt) <10 10≤X<20 20≤X<30 ≥30
Wind Gust (kt) <15 15≤X<25 25≤X<35 ≥35
Weather No Wx Reported VCTS -TS,-FZRA TS,FZRA +TS,+FZRA